| time (UTC) | temp F | wind direction | speed MPH | gust MPH | rain 1hr in | rain 24hr in | rain mn in | humidity % | barometer mb |
| 20260503233553 | 51 | 240 | 4.0 | 10.0 | 0.00 | 0.00 | 0.00 | 73 | 1007.3 |
| 20260503233058 | 51 | 234 | 2.0 | 12.0 | 0.00 | 0.00 | 0.00 | 73 | 1007.3 |
| 20260503232554 | 51 | 247 | 4.0 | 12.0 | 0.00 | 0.00 | 0.00 | 73 | 1007.4 |
| 20260503232053 | 51 | 256 | 3.0 | 11.0 | 0.00 | 0.00 | 0.00 | 73 | 1007.6 |
| 20260503231556 | 51 | 252 | 2.0 | 14.0 | 0.00 | 0.00 | 0.00 | 73 | 1007.5 |
| 20260503231058 | 51 | 279 | 4.0 | 14.0 | 0.00 | 0.00 | 0.00 | 73 | 1007.6 |
| 20260503230558 | 51 | 252 | 8.0 | 14.0 | 0.00 | 0.00 | 0.00 | 73 | 1007.6 |
| 20260503225557 | 51 | 305 | 5.0 | 14.0 | 0.00 | 0.00 | 0.00 | 75 | 1007.6 |
| 20260503225057 | 51 | 267 | 6.0 | 14.0 | 0.00 | 0.00 | 0.00 | 75 | 1007.6 |
| 20260503224557 | 51 | 325 | 8.0 | 17.0 | 0.00 | 0.00 | 0.00 | 74 | 1007.8 |
| 20260503224057 | 51 | 251 | 6.0 | 17.0 | 0.00 | 0.00 | 0.00 | 75 | 1007.8 |
| 20260503223557 | 51 | 269 | 8.0 | 15.0 | 0.00 | 0.00 | 0.00 | 75 | 1007.9 |
| 20260503223054 | 51 | 273 | 6.0 | 15.0 | 0.00 | 0.00 | 0.00 | 76 | 1007.8 |
| 20260503222600 | 51 | 212 | 7.0 | 15.0 | 0.00 | 0.00 | 0.00 | 76 | 1007.8 |
| 20260503222057 | 51 | 261 | 8.0 | 15.0 | 0.00 | 0.00 | 0.00 | 76 | 1007.8 |
| 20260503221558 | 51 | 252 | 5.0 | 13.0 | 0.00 | 0.00 | 0.00 | 77 | 1008.0 |
| 20260503221058 | 50 | 258 | 4.0 | 13.0 | 0.00 | 0.00 | 0.00 | 77 | 1007.9 |
| 20260503220558 | 50 | 260 | 4.0 | 13.0 | 0.00 | 0.00 | 0.00 | 77 | 1008.0 |
| 20260503220058 | 50 | 268 | 5.0 | 12.0 | 0.00 | 0.00 | 0.00 | 77 | 1008.0 |
| 20260503215557 | 50 | 269 | 5.0 | 16.0 | 0.00 | 0.00 | 0.00 | 77 | 1008.1 |
| 20260503215057 | 51 | 269 | 4.0 | 16.0 | 0.00 | 0.00 | 0.00 | 76 | 1008.0 |
| 20260503214556 | 50 | 275 | 5.0 | 14.0 | 0.00 | 0.00 | 0.00 | 76 | 1008.1 |
| 20260503214057 | 51 | 294 | 4.0 | 13.0 | 0.00 | 0.00 | 0.00 | 76 | 1008.1 |
| 20260503213557 | 51 | 330 | 6.0 | 18.0 | 0.00 | 0.00 | 0.00 | 76 | 1008.1 |
| 20260503213058 | 51 | 279 | 6.0 | 18.0 | 0.00 | 0.00 | 0.00 | 75 | 1008.1 |
| 20260503212558 | 51 | 309 | 7.0 | 16.0 | 0.00 | 0.00 | 0.00 | 74 | 1008.1 |
| 20260503212058 | 51 | 266 | 7.0 | 26.0 | 0.00 | 0.00 | 0.00 | 73 | 1008.1 |
| 20260503211558 | 51 | 313 | 4.0 | 26.0 | 0.00 | 0.00 | 0.00 | 72 | 1008.0 |
| 20260503211057 | 52 | 271 | 9.0 | 21.0 | 0.00 | 0.00 | 0.00 | 71 | 1008.0 |
| 20260503210557 | 52 | 319 | 7.0 | 20.0 | 0.00 | 0.00 | 0.00 | 71 | 1008.0 |
| 20260503210058 | 53 | 252 | 10.0 | 26.0 | 0.00 | 0.00 | 0.00 | 70 | 1007.9 |
| 20260503205558 | 53 | 296 | 13.0 | 26.0 | 0.00 | 0.00 | 0.00 | 68 | 1007.9 |
| 20260503205058 | 55 | 293 | 11.0 | 23.0 | 0.00 | 0.00 | 0.00 | 63 | 1007.8 |
| 20260503204557 | 55 | 254 | 8.0 | 22.0 | 0.00 | 0.00 | 0.00 | 60 | 1007.6 |
| 20260503204057 | 56 | 255 | 11.0 | 22.0 | 0.00 | 0.00 | 0.00 | 59 | 1007.7 |
| 20260503203558 | 56 | 253 | 6.0 | 23.0 | 0.00 | 0.00 | 0.00 | 57 | 1007.6 |
| 20260503203057 | 56 | 309 | 11.0 | 23.0 | 0.00 | 0.00 | 0.00 | 53 | 1007.4 |
| 20260503202558 | 56 | 314 | 6.0 | 23.0 | 0.00 | 0.00 | 0.00 | 51 | 1007.3 |
| 20260503202058 | 55 | 247 | 4.0 | 10.0 | 0.00 | 0.00 | 0.00 | 51 | 1007.3 |
| 20260503201556 | 55 | 254 | 3.0 | 7.0 | 0.00 | 0.00 | 0.00 | 51 | 1007.2 |
| 20260503201057 | 55 | 274 | 2.0 | 6.0 | 0.00 | 0.00 | 0.00 | 52 | 1007.2 |
| 20260503200552 | 55 | 271 | 1.0 | 5.0 | 0.00 | 0.00 | 0.00 | 51 | 1007.3 |
| 20260503200106 | 55 | 0 | 0.0 | 5.0 | 0.00 | 0.00 | 0.00 | 51 | 1007.3 |
| 20260503195556 | 55 | 196 | 0.0 | 5.0 | 0.00 | 0.00 | 0.00 | 50 | 1007.5 |
| 20260503195053 | 55 | 170 | 1.0 | 6.0 | 0.00 | 0.00 | 0.00 | 50 | 1007.6 |
| 20260503194556 | 55 | 161 | 1.0 | 8.0 | 0.00 | 0.00 | 0.00 | 51 | 1007.4 |
| 20260503194057 | 56 | 200 | 2.0 | 8.0 | 0.00 | 0.00 | 0.00 | 49 | 1007.4 |
| 20260503193556 | 56 | 194 | 2.0 | 7.0 | 0.00 | 0.00 | 0.00 | 50 | 1007.4 |
| 20260503193107 | 55 | 180 | 3.0 | 7.0 | 0.00 | 0.00 | 0.00 | 50 | 1007.5 |
| 20260503192556 | 55 | 178 | 2.0 | 10.0 | 0.00 | 0.00 | 0.00 | 51 | 1007.6 |
| 20260503192053 | 55 | 163 | 3.0 | 10.0 | 0.00 | 0.00 | 0.00 | 51 | 1007.7 |
| 20260503191605 | 55 | 173 | 4.0 | 11.0 | 0.00 | 0.00 | 0.00 | 52 | 1007.8 |
| 20260503191056 | 55 | 198 | 2.0 | 11.0 | 0.00 | 0.00 | 0.00 | 53 | 1008.0 |
| 20260503190557 | 55 | 0 | 2.0 | 12.0 | 0.00 | 0.00 | 0.00 | 50 | 1008.2 |
| 20260503190104 | 55 | 148 | 2.0 | 12.0 | 0.00 | 0.00 | 0.00 | 49 | 1008.3 |
| 20260503185555 | 55 | 94 | 3.0 | 10.0 | 0.00 | 0.00 | 0.00 | 48 | 1008.3 |
| 20260503185056 | 55 | 180 | 4.0 | 14.0 | 0.00 | 0.00 | 0.00 | 47 | 1008.4 |
| 20260503184559 | 55 | 197 | 4.0 | 14.0 | 0.00 | 0.00 | 0.00 | 47 | 1008.5 |
| 20260503184054 | 55 | 225 | 5.0 | 13.0 | 0.00 | 0.00 | 0.00 | 47 | 1008.6 |
| 20260503183554 | 55 | 164 | 5.0 | 12.0 | 0.00 | 0.00 | 0.00 | 45 | 1008.7 |
| 20260503183116 | 56 | 225 | 5.0 | 13.0 | 0.00 | 0.00 | 0.00 | 43 | 1008.7 |
| 20260503182554 | 56 | 159 | 6.0 | 13.0 | 0.00 | 0.00 | 0.00 | 41 | 1008.9 |
| 20260503182053 | 56 | 186 | 3.0 | 12.0 | 0.00 | 0.00 | 0.00 | 42 | 1009.0 |
| 20260503181620 | 56 | 195 | 5.0 | 10.0 | 0.00 | 0.00 | 0.00 | 41 | 1009.0 |
| 20260503181053 | 56 | 176 | 4.0 | 10.0 | 0.00 | 0.00 | 0.00 | 43 | 1009.1 |
| 20260503180553 | 56 | 193 | 3.0 | 16.0 | 0.00 | 0.00 | 0.00 | 41 | 1009.1 |
| 20260503180111 | 56 | 163 | 5.0 | 18.0 | 0.00 | 0.00 | 0.00 | 42 | 1009.3 |
| 20260503175554 | 56 | 171 | 5.0 | 18.0 | 0.00 | 0.00 | 0.00 | 42 | 1009.2 |
| 20260503175057 | 56 | 274 | 1.0 | 11.0 | 0.00 | 0.00 | 0.00 | 42 | 1009.4 |
| 20260503174556 | 55 | 155 | 5.0 | 11.0 | 0.00 | 0.00 | 0.00 | 43 | 1009.4 |
| 20260503174053 | 55 | 251 | 4.0 | 15.0 | 0.00 | 0.00 | 0.00 | 43 | 1009.5 |
| 20260503173554 | 55 | 211 | 5.0 | 15.0 | 0.00 | 0.00 | 0.00 | 43 | 1009.7 |
| 20260503173101 | 55 | 196 | 6.0 | 16.0 | 0.00 | 0.00 | 0.00 | 42 | 1009.8 |
| 20260503172559 | 54 | 0 | 5.0 | 16.0 | 0.00 | 0.00 | 0.00 | 43 | 1009.8 |
| 20260503172055 | 54 | 189 | 5.0 | 11.0 | 0.00 | 0.00 | 0.00 | 42 | 1009.8 |
| 20260503171558 | 54 | 209 | 6.0 | 12.0 | 0.00 | 0.00 | 0.00 | 44 | 1010.0 |
| 20260503171056 | 54 | 198 | 4.0 | 14.0 | 0.00 | 0.00 | 0.00 | 43 | 1010.1 |
| 20260503170556 | 54 | 217 | 4.0 | 14.0 | 0.00 | 0.00 | 0.00 | 45 | 1010.2 |
| 20260503150554 | 50 | 240 | 3.0 | 9.0 | 0.00 | 0.00 | 0.00 | 51 | 1011.5 |
| 20260503131055 | 43 | 233 | 2.0 | 7.0 | 0.00 | 0.00 | 0.00 | 62 | 1012.3 |
| 20260503130600 | 43 | 262 | 2.0 | 7.0 | 0.00 | 0.00 | 0.00 | 62 | 1012.4 |
| 20260503110555 | 31 | 0 | 0.0 | 1.0 | 0.00 | 0.00 | 0.00 | 79 | 1012.3 |
| 20260503100107 | 30 | 0 | 0.0 | 0.0 | 0.00 | 0.00 | 0.00 | 80 | 1012.3 |
| 20260503090105 | 29 | 0 | 0.0 | 0.0 | 0.00 | 0.00 | 0.00 | 80 | 1012.8 |
| 20260503081557 | 29 | 0 | 0.0 | 0.0 | 0.00 | 0.00 | 0.00 | 78 | 1013.0 |
| 20260503081058 | 29 | 0 | 0.0 | 0.0 | 0.00 | 0.00 | 0.00 | 77 | 1013.1 |
| 20260503080558 | 29 | 0 | 0.0 | 0.0 | 0.00 | 0.00 | 0.00 | 77 | 1013.1 |
| 20260503072556 | 30 | 0 | 0.0 | 0.0 | 0.00 | 0.00 | 0.00 | 76 | 1013.1 |
| 20260503072057 | 30 | 0 | 0.0 | 0.0 | 0.00 | 0.00 | 0.00 | 76 | 1013.1 |
| 20260503071606 | 30 | 0 | 0.0 | 0.0 | 0.00 | 0.00 | 0.00 | 76 | 1013.0 |
| 20260503071056 | 30 | 0 | 0.0 | 0.0 | 0.00 | 0.00 | 0.00 | 75 | 1013.1 |
| 20260503070556 | 30 | 0 | 0.0 | 0.0 | 0.00 | 0.00 | 0.00 | 75 | 1013.1 |
| 20260503070113 | 30 | 0 | 0.0 | 0.0 | 0.00 | 0.00 | 0.00 | 75 | 1013.2 |
| 20260503060120 | 31 | 0 | 0.0 | 0.0 | 0.00 | 0.00 | 0.00 | 71 | 1013.6 |
| 20260503055058 | 32 | 0 | 0.0 | 0.0 | 0.00 | 0.00 | 0.00 | 70 | 1013.7 |
| 20260503054600 | 32 | 0 | 0.0 | 0.0 | 0.00 | 0.00 | 0.00 | 71 | 1013.7 |
| 20260503054055 | 32 | 0 | 0.0 | 0.0 | 0.00 | 0.00 | 0.00 | 71 | 1013.7 |
| 20260503053555 | 32 | 0 | 0.0 | 0.0 | 0.00 | 0.00 | 0.00 | 71 | 1013.8 |
| 20260503053055 | 32 | 0 | 0.0 | 0.0 | 0.00 | 0.00 | 0.00 | 71 | 1013.8 |
| 20260503052554 | 32 | 0 | 0.0 | 1.0 | 0.00 | 0.00 | 0.00 | 70 | 1013.9 |
| 20260503052058 | 32 | 0 | 0.0 | 1.0 | 0.00 | 0.00 | 0.00 | 70 | 1013.9 |
| 20260503051556 | 32 | 0 | 0.0 | 0.0 | 0.00 | 0.00 | 0.00 | 70 | 1013.9 |
| 20260503051054 | 32 | 0 | 0.0 | 0.0 | 0.00 | 0.00 | 0.00 | 70 | 1013.9 |
| 20260503050554 | 33 | 0 | 0.0 | 0.0 | 0.00 | 0.00 | 0.00 | 70 | 1013.9 |
| 20260503050055 | 33 | 0 | 0.0 | 0.0 | 0.00 | 0.00 | 0.00 | 70 | 1013.9 |
| 20260503045557 | 33 | 0 | 0.0 | 0.0 | 0.00 | 0.00 | 0.00 | 69 | 1013.9 |
| 20260503045055 | 33 | 0 | 0.0 | 0.0 | 0.00 | 0.00 | 0.00 | 69 | 1013.9 |
| 20260503044557 | 33 | 0 | 0.0 | 0.0 | 0.00 | 0.00 | 0.00 | 68 | 1014.0 |
| 20260503044056 | 33 | 0 | 0.0 | 0.0 | 0.00 | 0.00 | 0.00 | 67 | 1014.0 |
| 20260503043556 | 33 | 0 | 0.0 | 0.0 | 0.00 | 0.00 | 0.00 | 67 | 1014.0 |
| 20260503043057 | 34 | 0 | 0.0 | 0.0 | 0.00 | 0.00 | 0.00 | 67 | 1014.1 |
| 20260503042554 | 34 | 0 | 0.0 | 0.0 | 0.00 | 0.00 | 0.00 | 67 | 1014.0 |
| 20260503042057 | 34 | 0 | 0.0 | 0.0 | 0.00 | 0.00 | 0.00 | 66 | 1014.0 |
| 20260503041558 | 34 | 0 | 0.0 | 0.0 | 0.00 | 0.00 | 0.00 | 67 | 1014.1 |
| 20260503041054 | 34 | 0 | 0.0 | 0.0 | 0.00 | 0.00 | 0.00 | 67 | 1014.0 |
| 20260503040554 | 34 | 0 | 0.0 | 2.0 | 0.00 | 0.00 | 0.00 | 67 | 1014.1 |
| 20260503040057 | 34 | 0 | 0.0 | 2.0 | 0.00 | 0.00 | 0.00 | 66 | 1014.2 |
| 20260503035555 | 34 | 0 | 0.0 | 1.0 | 0.00 | 0.00 | 0.00 | 66 | 1014.2 |
| 20260503035054 | 35 | 0 | 0.0 | 2.0 | 0.00 | 0.00 | 0.00 | 67 | 1014.2 |
| 20260503034611 | 35 | 0 | 0.0 | 2.0 | 0.00 | 0.00 | 0.00 | 67 | 1014.1 |
| 20260503034058 | 35 | 0 | 0.0 | 2.0 | 0.00 | 0.00 | 0.00 | 67 | 1014.2 |
| 20260503033557 | 35 | 0 | 0.0 | 0.0 | 0.00 | 0.00 | 0.00 | 67 | 1014.1 |
| 20260503033059 | 35 | 0 | 0.0 | 2.0 | 0.00 | 0.00 | 0.00 | 66 | 1014.1 |
| 20260503032556 | 35 | 0 | 0.0 | 2.0 | 0.00 | 0.00 | 0.00 | 66 | 1014.0 |
| 20260503032056 | 36 | 0 | 0.0 | 2.0 | 0.00 | 0.00 | 0.00 | 66 | 1013.9 |
| 20260503031559 | 36 | 0 | 0.0 | 2.0 | 0.00 | 0.00 | 0.00 | 66 | 1014.0 |
| 20260503031055 | 36 | 0 | 0.0 | 2.0 | 0.00 | 0.00 | 0.00 | 66 | 1014.0 |
| 20260503030557 | 36 | 264 | 0.0 | 2.0 | 0.00 | 0.00 | 0.00 | 65 | 1014.1 |
| 20260503030058 | 36 | 0 | 0.0 | 2.0 | 0.00 | 0.00 | 0.00 | 65 | 1014.1 |
| 20260503025554 | 37 | 269 | 0.0 | 3.0 | 0.00 | 0.00 | 0.00 | 64 | 1014.0 |
| 20260503025056 | 37 | 275 | 0.0 | 3.0 | 0.00 | 0.00 | 0.00 | 63 | 1014.1 |
| 20260503024556 | 37 | 0 | 0.0 | 4.0 | 0.00 | 0.00 | 0.00 | 63 | 1014.1 |
| 20260503024056 | 37 | 0 | 1.0 | 4.0 | 0.00 | 0.00 | 0.00 | 63 | 1014.1 |
| 20260503023554 | 37 | 0 | 0.0 | 3.0 | 0.00 | 0.00 | 0.00 | 63 | 1014.0 |
| 20260503023059 | 37 | 0 | 1.0 | 3.0 | 0.00 | 0.00 | 0.00 | 63 | 1014.0 |
| 20260503022555 | 37 | 0 | 0.0 | 4.0 | 0.00 | 0.00 | 0.00 | 63 | 1014.1 |
| 20260503022054 | 37 | 0 | 0.0 | 4.0 | 0.00 | 0.00 | 0.00 | 64 | 1014.1 |
| 20260503021556 | 38 | 0 | 0.0 | 4.0 | 0.00 | 0.00 | 0.00 | 63 | 1014.0 |
| 20260503021057 | 38 | 257 | 1.0 | 4.0 | 0.00 | 0.00 | 0.00 | 64 | 1014.2 |
| 20260503020557 | 38 | 0 | 0.0 | 3.0 | 0.00 | 0.00 | 0.00 | 64 | 1014.2 |
| 20260503020056 | 38 | 0 | 0.0 | 3.0 | 0.00 | 0.00 | 0.00 | 64 | 1014.2 |
| 20260503015555 | 38 | 0 | 0.0 | 2.0 | 0.00 | 0.00 | 0.00 | 63 | 1014.2 |
| 20260503015055 | 39 | 0 | 0.0 | 2.0 | 0.00 | 0.00 | 0.00 | 63 | 1014.2 |
| 20260503014558 | 39 | 0 | 0.0 | 2.0 | 0.00 | 0.00 | 0.00 | 62 | 1014.1 |
| 20260503014055 | 39 | 0 | 0.0 | 2.0 | 0.00 | 0.00 | 0.00 | 60 | 1014.1 |
| 20260503013556 | 40 | 0 | 0.0 | 2.0 | 0.00 | 0.00 | 0.00 | 60 | 1014.0 |
| 20260503013103 | 40 | 0 | 0.0 | 1.0 | 0.00 | 0.00 | 0.00 | 59 | 1014.0 |
| 20260503012554 | 40 | 0 | 0.0 | 1.0 | 0.00 | 0.00 | 0.00 | 59 | 1014.0 |
| 20260503012053 | 40 | 0 | 0.0 | 2.0 | 0.00 | 0.00 | 0.00 | 59 | 1014.0 |
| 20260503011608 | 40 | 0 | 0.0 | 2.0 | 0.00 | 0.00 | 0.00 | 59 | 1014.0 |
| 20260503011056 | 40 | 0 | 0.0 | 2.0 | 0.00 | 0.00 | 0.00 | 60 | 1014.0 |
| 20260503010557 | 41 | 0 | 0.0 | 1.0 | 0.00 | 0.00 | 0.00 | 58 | 1013.9 |
| 20260503010122 | 41 | 0 | 0.0 | 3.0 | 0.00 | 0.00 | 0.00 | 57 | 1013.9 |
| 20260503005557 | 41 | 0 | 0.0 | 3.0 | 0.00 | 0.00 | 0.00 | 56 | 1013.9 |
| 20260503005059 | 42 | 0 | 0.0 | 3.0 | 0.00 | 0.00 | 0.00 | 56 | 1013.9 |
| 20260503004600 | 42 | 0 | 0.0 | 3.0 | 0.00 | 0.00 | 0.00 | 56 | 1013.8 |
| 20260503004057 | 42 | 0 | 0.0 | 3.0 | 0.00 | 0.00 | 0.00 | 54 | 1013.8 |
| 20260503003556 | 43 | 0 | 0.0 | 3.0 | 0.00 | 0.00 | 0.00 | 53 | 1013.8 |
| 20260503003111 | 43 | 0 | 1.0 | 6.0 | 0.00 | 0.00 | 0.00 | 52 | 1013.8 |
| 20260503002554 | 43 | 306 | 2.0 | 7.0 | 0.00 | 0.00 | 0.00 | 51 | 1013.8 |
| 20260503002054 | 43 | 294 | 2.0 | 8.0 | 0.00 | 0.00 | 0.00 | 52 | 1013.8 |
| 20260503001601 | 43 | 310 | 3.0 | 8.0 | 0.00 | 0.00 | 0.00 | 51 | 1013.8 |
| 20260503001054 | 43 | 315 | 2.0 | 8.0 | 0.00 | 0.00 | 0.00 | 51 | 1013.9 |
| 20260503000554 | 43 | 310 | 2.0 | 3.0 | 0.00 | 0.00 | 0.00 | 51 | 1013.8 |
| 20260503000106 | 43 | 275 | 0.0 | 8.0 | 0.00 | 0.00 | 0.00 | 52 | 1013.8 |
| 20260502235557 | 43 | 309 | 2.0 | 8.0 | 0.00 | 0.00 | 0.00 | 51 | 1013.9 |
| 20260502235057 | 44 | 327 | 2.0 | 10.0 | 0.00 | 0.00 | 0.00 | 51 | 1013.8 |
| 20260502234557 | 44 | 360 | 3.0 | 11.0 | 0.00 | 0.00 | 0.00 | 51 | 1013.7 |
| 20260502234100 | 44 | 309 | 3.0 | 11.0 | 0.00 | 0.00 | 0.00 | 54 | 1013.8 |